Aviation Digital Data Service (ADDS)

Output produced by METARs form (1426 UTC 10 July 2020)
found at http://www.aviationweather.gov/metar/data/
 
KTYS 101353Z 20007KT 10SM FEW034 FEW110 SCT200 26/22 A2997 RMK AO2 RAE08 TSE08 SLP137 CB DSNT SSE P0002 T02560222 $
KTYS 101130Z 1012/1112 21005KT P6SM SCT080 
     TEMPO 1012/1013 4SM -SHRA BR BKN080 
     FM101300 21005KT P6SM VCSH SCT080 
     FM101500 22005KT P6SM FEW100 
     FM101900 25006KT P6SM VCTS SCT090CB 
     PROB30 1021/1103 4SM TSRA BR BKN090CB BKN100 
     FM110300 28006KT P6SM SCT100